createdAt,value
2022-08-03T00:04:33.929Z,100434.56
2022-08-03T00:09:37.232Z,100431.00
2022-08-03T00:14:41.342Z,100424.78
2022-08-03T00:19:44.760Z,100428.75
2022-08-03T00:24:47.559Z,100423.34
2022-08-03T00:30:00.113Z,100421.69
2022-08-03T00:35:05.694Z,100425.25
2022-08-03T00:40:13.407Z,100424.78
2022-08-03T00:45:17.847Z,100425.47
2022-08-03T00:50:22.854Z,100425.41
2022-08-03T00:55:25.634Z,100422.75
2022-08-03T01:00:29.781Z,100419.03
2022-08-03T01:05:33.775Z,100417.59
2022-08-03T01:10:46.988Z,100410.50
2022-08-03T01:15:54.498Z,100411.50
2022-08-03T01:20:57.682Z,100408.25
2022-08-03T01:26:07.020Z,100406.53
2022-08-03T01:31:11.717Z,100410.81
2022-08-03T01:36:15.582Z,100404.59
2022-08-03T01:41:19.906Z,100397.75
2022-08-03T01:46:24.097Z,100400.44
2022-08-03T01:52:03.584Z,100407.00
2022-08-03T01:56:49.556Z,100401.06
2022-08-03T02:02:16.033Z,100399.19
2022-08-03T02:07:16.466Z,100404.47
2022-08-03T02:12:19.335Z,100397.63
2022-08-03T02:17:38.564Z,100397.53
2022-08-03T02:22:44.518Z,100400.31
2022-08-03T02:27:50.127Z,100397.63
2022-08-03T02:32:56.610Z,100399.34
2022-08-03T02:38:00.764Z,100395.25
2022-08-03T02:43:06.346Z,100399.09
2022-08-03T02:48:10.561Z,100399.94
2022-08-03T02:53:13.651Z,100393.41
2022-08-03T02:58:16.390Z,100397.66
2022-08-03T03:03:20.781Z,100395.13
2022-08-03T03:08:26.890Z,100398.53
2022-08-03T03:13:31.905Z,100400.13
2022-08-03T03:18:36.166Z,100396.84
2022-08-03T03:23:39.847Z,100394.28
2022-08-03T03:28:42.663Z,100392.53
2022-08-03T03:33:46.734Z,100392.13
2022-08-03T03:38:49.469Z,100392.53
2022-08-03T03:43:56.637Z,100390.84
2022-08-03T03:49:00.922Z,100392.53
2022-08-03T03:54:04.520Z,100393.09
2022-08-03T03:59:07.229Z,100397.03
2022-08-03T04:04:28.817Z,100388.34
2022-08-03T04:09:49.261Z,100395.91
2022-08-03T04:14:51.985Z,100403.09
2022-08-03T04:19:56.226Z,100399.66
2022-08-03T04:25:01.072Z,100405.25
2022-08-03T04:30:04.764Z,100410.88
2022-08-03T04:35:09.762Z,100410.66
2022-08-03T04:40:14.816Z,100417.84
2022-08-03T04:45:18.024Z,100424.53
2022-08-03T04:50:22.163Z,100423.75
2022-08-03T04:55:39.642Z,100432.72
2022-08-03T05:00:42.366Z,100430.84
2022-08-03T05:05:50.673Z,100438.13
2022-08-03T05:10:53.766Z,100445.56
2022-08-03T05:15:56.650Z,100449.66
2022-08-03T05:21:00.801Z,100442.63
2022-08-03T05:26:03.751Z,100446.75
2022-08-03T05:31:06.512Z,100444.13
2022-08-03T05:36:10.774Z,100445.41
2022-08-03T05:41:22.065Z,100450.63
2022-08-03T05:46:26.745Z,100446.94
2022-08-03T05:51:31.499Z,100451.78
2022-08-03T05:56:34.278Z,100444.56
2022-08-03T06:01:37.040Z,100451.53
2022-08-03T06:06:41.245Z,100449.28
2022-08-03T06:11:44.005Z,100456.41
2022-08-03T06:16:48.846Z,100457.91
2022-08-03T06:21:53.036Z,100452.94
2022-08-03T06:26:56.064Z,100455.72
2022-08-03T06:31:58.848Z,100451.84
2022-08-03T06:37:02.905Z,100457.91
2022-08-03T06:42:06.131Z,100455.38
2022-08-03T06:47:15.373Z,100452.38
2022-08-03T06:52:37.772Z,100457.19
2022-08-03T06:57:41.342Z,100454.53
2022-08-03T07:02:44.133Z,100451.03
2022-08-03T07:07:49.181Z,100453.69
2022-08-03T07:12:55.927Z,100457.84
2022-08-03T07:17:59.709Z,100460.22
2022-08-03T07:23:04.126Z,100455.50
2022-08-03T07:28:07.172Z,100451.81
2022-08-03T07:33:09.873Z,100451.41
2022-08-03T07:38:14.022Z,100448.41
2022-08-03T07:43:17.607Z,100452.66
2022-08-03T07:48:20.680Z,100460.50
2022-08-03T07:53:24.759Z,100457.81
2022-08-03T07:58:27.488Z,100454.50
2022-08-03T08:03:30.248Z,100450.25
2022-08-03T08:08:55.187Z,100441.31
2022-08-03T08:13:58.001Z,100441.16
2022-08-03T08:19:02.476Z,100441.28
2022-08-03T08:24:11.037Z,100438.97
2022-08-03T08:29:23.122Z,100433.31
2022-08-03T08:34:25.916Z,100443.13
2022-08-03T08:39:30.252Z,100439.97
2022-08-03T08:44:33.007Z,100436.41
2022-08-03T08:49:36.558Z,100432.97
2022-08-03T08:54:42.788Z,100443.78
2022-08-03T08:59:48.514Z,100439.38
2022-08-03T09:04:52.473Z,100435.53
2022-08-03T09:10:08.317Z,100424.28
2022-08-03T09:15:23.055Z,100420.56
2022-08-03T09:20:26.888Z,100421.72
2022-08-03T09:25:32.258Z,100423.13
2022-08-03T09:30:35.448Z,100423.28
2022-08-03T09:35:53.671Z,100417.28
2022-08-03T09:41:00.802Z,100411.72
2022-08-03T09:46:04.102Z,100416.13
2022-08-03T09:51:12.878Z,100416.13
2022-08-03T09:56:36.263Z,100414.16
2022-08-03T10:01:41.646Z,100410.88
2022-08-03T10:06:45.064Z,100399.59
2022-08-03T10:11:49.452Z,100397.78
2022-08-03T10:16:52.281Z,100397.63
2022-08-03T10:21:56.790Z,100389.53
2022-08-03T10:27:03.409Z,100395.50
2022-08-03T10:32:09.795Z,100385.25
2022-08-03T10:37:13.251Z,100375.44
2022-08-03T10:42:17.512Z,100381.53
2022-08-03T10:47:20.737Z,100370.72
2022-08-03T10:52:31.809Z,100374.84
2022-08-03T10:57:49.775Z,100372.66
2022-08-03T11:03:16.652Z,100362.41
2022-08-03T11:08:20.733Z,100360.69
2022-08-03T11:13:25.762Z,100356.72
2022-08-03T11:18:28.828Z,100360.13
2022-08-03T11:24:05.421Z,100348.16
2022-08-03T11:29:29.262Z,100353.41
2022-08-03T11:34:32.222Z,100347.16
2022-08-03T11:39:43.499Z,100352.97
2022-08-03T11:44:47.801Z,100341.84
2022-08-03T11:49:51.439Z,100342.53
2022-08-03T11:54:57.005Z,100340.53
2022-08-03T12:00:01.389Z,100334.88
2022-08-03T12:05:04.524Z,100338.44
2022-08-03T12:10:08.055Z,100330.47
2022-08-03T12:15:12.686Z,100332.19
2022-08-03T12:20:21.820Z,100323.22
2022-08-03T12:25:39.485Z,100316.81
2022-08-03T12:30:44.491Z,100316.81
2022-08-03T12:35:52.306Z,100313.09
2022-08-03T12:41:02.749Z,100307.69
2022-08-03T12:46:14.600Z,100301.66
2022-08-03T12:51:17.373Z,100306.91
2022-08-03T12:56:20.629Z,100293.06
2022-08-03T13:01:27.818Z,100297.03
2022-08-03T13:06:30.864Z,100298.72
2022-08-03T13:11:55.929Z,100293.16
2022-08-03T13:16:58.164Z,100282.00
2022-08-03T13:22:04.596Z,100280.03
2022-08-03T13:28:12.402Z,100288.66
2022-08-03T13:32:32.040Z,100286.81
2022-08-03T13:37:35.083Z,100281.81
2022-08-03T13:42:38.928Z,100272.50
2022-08-03T13:47:43.339Z,100276.06
2022-08-03T13:52:46.308Z,100261.38
2022-08-03T13:58:02.454Z,100249.53
2022-08-03T14:03:14.860Z,100250.84
2022-08-03T14:08:18.225Z,100243.94
2022-08-03T14:13:20.963Z,100242.81
2022-08-03T14:18:28.713Z,100244.97
2022-08-03T14:23:37.434Z,100236.91
2022-08-03T14:28:40.178Z,100240.13
2022-08-03T14:33:44.296Z,100231.72
2022-08-03T14:38:47.803Z,100234.19
2022-08-03T14:44:01.707Z,100236.28
2022-08-03T14:50:31.339Z,100235.31
2022-08-03T14:54:30.915Z,100226.00
2022-08-03T14:59:55.538Z,100226.53
2022-08-03T15:04:57.804Z,100219.47
2022-08-03T15:10:00.513Z,100206.31
2022-08-03T15:15:05.836Z,100206.31
2022-08-03T15:20:28.872Z,100201.41
2022-08-03T15:26:29.454Z,100199.53
2022-08-03T15:30:57.022Z,100198.38
2022-08-03T15:36:01.239Z,100192.78
2022-08-03T15:41:04.012Z,100184.66
2022-08-03T15:46:28.811Z,100189.06
2022-08-03T15:51:30.864Z,100184.31
2022-08-03T15:56:33.726Z,100179.41
2022-08-03T16:01:36.572Z,100179.25
2022-08-03T16:06:40.749Z,100184.22
2022-08-03T16:11:43.570Z,100181.00
2022-08-03T16:16:46.724Z,100175.66
2022-08-03T16:21:51.064Z,100170.56
2022-08-03T16:26:54.179Z,100164.97
2022-08-03T16:31:57.009Z,100160.06
2022-08-03T16:37:16.546Z,100160.06
2022-08-03T16:42:23.902Z,100157.16
2022-08-03T16:47:26.714Z,100160.88
2022-08-03T16:52:30.788Z,100165.63
2022-08-03T16:57:58.650Z,100157.00
2022-08-03T17:02:59.619Z,100174.97
2022-08-03T17:08:10.555Z,100166.31
2022-08-03T17:13:21.561Z,100164.13
2022-08-03T17:18:25.422Z,100166.16
2022-08-03T17:23:37.355Z,100170.41
2022-08-03T17:28:52.153Z,100174.63
2022-08-03T17:34:01.808Z,100170.72
2022-08-03T17:39:06.592Z,100176.53
2022-08-03T17:44:15.546Z,100168.88
2022-08-03T17:49:25.064Z,100175.50
2022-08-03T17:54:32.170Z,100178.88
2022-08-03T17:59:51.705Z,100177.31
2022-08-03T18:05:00.491Z,100177.66
2022-08-03T18:10:11.229Z,100179.50
2022-08-03T18:15:22.089Z,100178.53
2022-08-03T18:20:32.912Z,100179.19
2022-08-03T18:25:50.869Z,100178.53
2022-08-03T18:30:59.092Z,100178.19
2022-08-03T18:36:01.947Z,100175.81
2022-08-03T18:41:14.573Z,100180.19
2022-08-03T18:46:28.446Z,100182.50
2022-08-03T18:51:43.474Z,100177.63
2022-08-03T18:56:53.697Z,100175.75
2022-08-03T19:02:00.744Z,100188.28
2022-08-03T19:07:08.586Z,100191.00
2022-08-03T19:12:28.111Z,100194.38
2022-08-03T19:17:38.466Z,100192.88
2022-08-03T19:22:45.916Z,100192.69
2022-08-03T19:27:50.256Z,100187.63
2022-08-03T19:32:52.986Z,100200.16
2022-08-03T19:37:55.857Z,100203.53
2022-08-03T19:43:05.795Z,100204.94
2022-08-03T19:48:10.450Z,100199.34
2022-08-03T19:53:13.371Z,100199.66
2022-08-03T19:58:24.431Z,100202.25
2022-08-03T20:03:43.486Z,100202.06
2022-08-03T20:08:51.615Z,100204.78
2022-08-03T20:13:56.299Z,100199.88
2022-08-03T20:18:59.630Z,100196.47
2022-08-03T20:24:23.709Z,100199.88
2022-08-03T20:29:42.744Z,100205.78
2022-08-03T20:34:53.465Z,100206.13
2022-08-03T20:39:56.313Z,100203.41
2022-08-03T20:45:06.019Z,100209.53
2022-08-03T20:50:15.853Z,100207.84
2022-08-03T20:55:20.380Z,100212.09
2022-08-03T21:00:43.685Z,100205.78
2022-08-03T21:05:51.074Z,100210.06
2022-08-03T21:11:12.517Z,100210.38
2022-08-03T21:16:16.851Z,100216.34
2022-08-03T21:21:20.988Z,100208.19
2022-08-03T21:26:25.182Z,100207.19
2022-08-03T21:31:29.246Z,100205.28
2022-08-03T21:36:33.932Z,100206.50
2022-08-03T21:41:37.351Z,100201.06
2022-08-03T21:46:41.814Z,100193.44
2022-08-03T21:51:44.909Z,100211.09
2022-08-03T21:56:48.422Z,100209.72
2022-08-03T22:01:55.466Z,100206.03
2022-08-03T22:07:01.657Z,100208.16
2022-08-03T22:12:05.051Z,100202.41
2022-08-03T22:17:09.177Z,100211.84
2022-08-03T22:22:14.553Z,100201.53
2022-08-03T22:27:33.209Z,100196.09
2022-08-03T22:32:37.512Z,100205.97
2022-08-03T22:37:41.023Z,100210.56
2022-08-03T22:42:45.608Z,100206.69
2022-08-03T22:47:49.759Z,100211.09
2022-08-03T22:52:52.637Z,100201.09
2022-08-03T22:57:56.526Z,100206.00
2022-08-03T23:03:01.260Z,100207.53
2022-08-03T23:08:06.015Z,100216.50
2022-08-03T23:13:08.750Z,100209.72
2022-08-03T23:18:12.844Z,100197.19
2022-08-03T23:23:15.551Z,100205.97
2022-08-03T23:28:22.599Z,100193.44
2022-08-03T23:33:26.717Z,100198.47
2022-08-03T23:38:30.310Z,100191.19
2022-08-03T23:43:44.863Z,100189.47
2022-08-03T23:48:57.786Z,100199.59
2022-08-03T23:54:04.660Z,100199.41
2022-08-03T23:59:10.208Z,100198.88
